Time;durP1;ratioP1;P1;durP2;ratioP2;P2;SDS_P1;SDS_P2;PMS_P1;PMS_P2;Temp;Humidity;BMP_temperature;BMP_pressure;BME280_temperature;BME280_humidity;BME280_pressure;Samples;Min_cycle;Max_cycle;Signal;HPM_P1;HPM_P2
2021/08/10 00:02:11;;;;;;;;;;;;;;;19.47;56.21;99804.06;5013955;28;1929;-60
2021/08/10 00:04:38;;;;;;;;;;;;;;;19.33;56.62;99806.22;5014295;28;857;-60
2021/08/10 00:07:05;;;;;;;;;;;;;;;19.15;56.99;99795.72;5013924;28;810;-60
2021/08/10 00:09:31;;;;;;;;;;;;;;;19.09;57.29;99789.16;5013659;28;885;-60
2021/08/10 00:11:58;;;;;;;;;;;;;;;19.16;57.25;99797.31;5013797;28;803;-60
2021/08/10 00:14:25;;;;;;;;;;;;;;;19.20;57.06;99797.13;5013952;28;1067;-60
2021/08/10 00:16:52;;;;;;;;;;;;;;;19.23;57.16;99799.03;5013749;28;866;-60
2021/08/10 00:19:18;;;;;;;;;;;;;;;19.24;57.33;99800.56;5013754;28;854;-60
2021/08/10 00:21:45;;;;;;;;;;;;;;;19.27;57.46;99798.91;5013731;28;1966;-60
2021/08/10 00:24:12;;;;;;;;;;;;;;;19.32;58.33;99801.84;5013598;28;965;-61
2021/08/10 00:26:38;;;;;;;;;;;;;;;19.42;58.56;99799.09;5013490;28;815;-60
2021/08/10 00:29:05;;;;;;;;;;;;;;;19.49;59.29;99795.97;5013613;28;894;-60
2021/08/10 00:31:31;;;;;;;;;;;;;;;19.52;59.73;99809.06;5013450;28;874;-60
2021/08/10 00:33:57;;;;;;;;;;;;;;;19.55;59.82;99802.53;5013514;28;795;-60
2021/08/10 00:36:24;;;;;;;;;;;;;;;19.64;60.02;99810.19;5013402;28;858;-61
2021/08/10 00:38:50;;;;;;;;;;;;;;;19.67;60.43;99807.25;5013325;28;811;-61
2021/08/10 00:41:17;;;;;;;;;;;;;;;19.73;60.14;99807.41;5013285;28;1882;-61
2021/08/10 00:43:46;;;;;;;;;;;;;;;19.77;59.98;99805.25;5013204;28;822;-60
2021/08/10 00:46:14;;;;;;;;;;;;;;;19.76;59.94;99804.47;5013223;28;850;-61
2021/08/10 00:48:41;;;;;;;;;;;;;;;19.83;59.59;99802.59;5013102;28;954;-61
2021/08/10 00:51:09;;;;;;;;;;;;;;;19.87;58.97;99789.22;5011805;28;2343;-60
2021/08/10 00:53:36;;;;;;;;;;;;;;;19.82;58.81;99792.63;5013015;28;803;-60
2021/08/10 00:56:03;;;;;;;;;;;;;;;19.62;59.04;99791.00;5012961;28;878;-60
2021/08/10 00:58:31;;;;;;;;;;;;;;;19.39;59.50;99789.56;5012977;28;814;-60
2021/08/10 01:00:57;;;;;;;;;;;;;;;19.28;59.91;99786.44;5012829;28;1945;-60
2021/08/10 01:03:24;;;;;;;;;;;;;;;19.27;60.09;99779.28;5013041;28;894;-60
2021/08/10 01:05:51;;;;;;;;;;;;;;;19.29;60.08;99779.59;5012772;28;882;-60
2021/08/10 01:08:28;;;;;;;;;;;;;;;19.32;59.84;99779.44;5013138;28;858;-60
2021/08/10 01:11:06;;;;;;;;;;;;;;;19.24;60.10;99780.97;5012746;28;910;-60
2021/08/10 01:13:35;;;;;;;;;;;;;;;19.16;60.05;99776.88;5012755;28;882;-60
2021/08/10 01:16:20;;;;;;;;;;;;;;;19.15;60.19;99778.16;5012651;28;819;-60
2021/08/10 01:19:01;;;;;;;;;;;;;;;19.27;59.86;99770.88;5012378;28;1286;-60
2021/08/10 01:21:33;;;;;;;;;;;;;;;19.42;59.75;99771.06;5011895;28;1914;-60
2021/08/10 01:24:26;;;;;;;;;;;;;;;19.47;59.46;99762.03;5012485;28;835;-60
2021/08/10 01:27:02;;;;;;;;;;;;;;;19.53;59.34;99760.94;5010834;28;1359;-60
2021/08/10 01:30:01;;;;;;;;;;;;;;;19.57;59.03;99758.00;5012511;28;819;-60
2021/08/10 01:32:28;;;;;;;;;;;;;;;19.83;57.66;99750.09;5000530;28;1275;-60
2021/08/10 01:34:55;;;;;;;;;;;;;;;19.98;56.99;99744.63;5012312;28;847;-60
2021/08/10 01:37:28;;;;;;;;;;;;;;;20.07;56.73;99750.22;5012321;28;858;-60
2021/08/10 01:40:01;;;;;;;;;;;;;;;19.88;57.26;99752.25;5012575;28;862;-60
2021/08/10 01:42:27;;;;;;;;;;;;;;;19.64;58.26;99745.69;5012316;28;855;-60
2021/08/10 01:44:55;;;;;;;;;;;;;;;19.49;58.61;99754.72;5012277;28;831;-60
2021/08/10 01:47:22;;;;;;;;;;;;;;;19.37;59.02;99756.41;5012156;28;841;-60
2021/08/10 01:49:50;;;;;;;;;;;;;;;19.35;59.25;99744.09;5012145;28;838;-60
2021/08/10 01:52:19;;;;;;;;;;;;;;;19.29;59.38;99748.78;5012109;28;886;-60
2021/08/10 01:54:46;;;;;;;;;;;;;;;19.16;59.89;99748.88;5011960;28;798;-60
2021/08/10 01:57:14;;;;;;;;;;;;;;;19.10;60.23;99747.94;5012016;28;825;-60
2021/08/10 01:59:43;;;;;;;;;;;;;;;18.96;60.78;99747.28;5012064;28;827;-60
2021/08/10 02:02:10;;;;;;;;;;;;;;;18.88;61.01;99745.22;5011887;28;1890;-60
2021/08/10 02:04:37;;;;;;;;;;;;;;;18.85;61.19;99743.34;5011968;28;799;-60
2021/08/10 02:07:04;;;;;;;;;;;;;;;18.85;61.24;99744.13;5012033;28;866;-60
2021/08/10 02:09:32;;;;;;;;;;;;;;;18.75;61.93;99739.69;5012056;28;795;-60
2021/08/10 02:12:00;;;;;;;;;;;;;;;18.79;61.97;99740.38;5011831;28;861;-60
2021/08/10 02:14:28;;;;;;;;;;;;;;;18.81;62.18;99756.72;5011889;28;1102;-60
2021/08/10 02:16:57;;;;;;;;;;;;;;;18.72;62.40;99740.63;5011735;28;902;-60
2021/08/10 02:19:23;;;;;;;;;;;;;;;18.60;62.87;99747.09;5011743;28;826;-60
2021/08/10 02:21:52;;;;;;;;;;;;;;;18.52;63.25;99739.00;5011642;28;1911;-60
2021/08/10 02:24:26;;;;;;;;;;;;;;;18.55;63.42;99748.47;5011594;28;1136;-60
2021/08/10 02:26:56;;;;;;;;;;;;;;;18.59;63.29;99742.75;5011682;28;998;-60
2021/08/10 02:29:26;;;;;;;;;;;;;;;18.66;63.21;99751.63;5012073;28;818;-60
2021/08/10 02:31:53;;;;;;;;;;;;;;;18.71;63.11;99742.66;5012179;28;1078;-60
2021/08/10 02:34:20;;;;;;;;;;;;;;;18.70;63.22;99749.47;5015684;28;889;-60
2021/08/10 02:36:50;;;;;;;;;;;;;;;18.76;63.19;99755.28;5015642;28;834;-60
2021/08/10 02:39:17;;;;;;;;;;;;;;;18.90;62.88;99759.53;5015684;28;818;-60
2021/08/10 02:41:43;;;;;;;;;;;;;;;19.04;62.69;99766.59;5015473;28;1910;-60
2021/08/10 02:44:11;;;;;;;;;;;;;;;19.16;62.37;99766.50;5015535;28;894;-61
2021/08/10 02:46:37;;;;;;;;;;;;;;;19.27;62.12;99766.03;5015524;28;838;-60
2021/08/10 02:49:07;;;;;;;;;;;;;;;19.33;62.05;99766.19;5015494;28;799;-60
2021/08/10 02:51:33;;;;;;;;;;;;;;;19.42;61.76;99769.03;5015604;28;834;-60
2021/08/10 02:54:00;;;;;;;;;;;;;;;19.48;61.40;99770.00;5015187;28;894;-60
2021/08/10 02:56:31;;;;;;;;;;;;;;;19.57;61.21;99772.03;5015274;28;863;-60
2021/08/10 02:59:05;;;;;;;;;;;;;;;19.57;60.93;99781.19;5015274;28;819;-60
2021/08/10 03:01:36;;;;;;;;;;;;;;;19.60;60.95;99779.47;5015311;28;1965;-60
2021/08/10 03:04:02;;;;;;;;;;;;;;;19.61;60.97;99774.66;5015296;28;889;-60
2021/08/10 03:06:32;;;;;;;;;;;;;;;19.59;61.03;99777.94;5015325;28;906;-60
2021/08/10 03:08:59;;;;;;;;;;;;;;;19.52;61.16;99778.22;5015303;28;855;-60
2021/08/10 03:11:27;;;;;;;;;;;;;;;19.47;61.30;99781.66;5015309;28;907;-60
2021/08/10 03:13:53;;;;;;;;;;;;;;;19.43;61.66;99786.63;5014958;28;889;-60
2021/08/10 03:16:23;;;;;;;;;;;;;;;19.40;61.75;99790.38;5014914;28;826;-60
2021/08/10 03:18:51;;;;;;;;;;;;;;;19.41;61.98;99791.91;5014610;28;1439;-60
2021/08/10 03:21:21;;;;;;;;;;;;;;;19.40;62.33;99795.97;5014645;28;1914;-60
2021/08/10 03:23:49;;;;;;;;;;;;;;;19.40;62.46;99799.53;5014638;28;1004;-60
2021/08/10 03:26:17;;;;;;;;;;;;;;;19.41;62.34;99798.28;5014694;28;819;-60
2021/08/10 03:28:43;;;;;;;;;;;;;;;19.40;62.39;99799.53;5014647;28;807;-60
2021/08/10 03:31:11;;;;;;;;;;;;;;;19.39;62.42;99797.97;5014687;28;846;-60
2021/08/10 03:33:37;;;;;;;;;;;;;;;19.37;62.54;99798.47;5014802;28;882;-60
2021/08/10 03:36:04;;;;;;;;;;;;;;;19.32;62.63;99792.66;5014499;28;874;-60
2021/08/10 03:38:32;;;;;;;;;;;;;;;19.25;62.71;99799.34;5014514;28;842;-60
2021/08/10 03:40:59;;;;;;;;;;;;;;;19.19;63.04;99792.78;5014496;28;1886;-60
2021/08/10 03:43:26;;;;;;;;;;;;;;;19.17;63.03;99789.66;5013958;28;890;-60
2021/08/10 03:45:54;;;;;;;;;;;;;;;19.17;63.16;99793.25;5014265;28;846;-60
2021/08/10 03:48:21;;;;;;;;;;;;;;;19.15;63.32;99797.75;5014225;28;819;-60
2021/08/10 03:50:49;;;;;;;;;;;;;;;19.11;63.27;99802.72;5014294;28;869;-60
2021/08/10 03:53:18;;;;;;;;;;;;;;;19.10;63.47;99804.75;5014358;28;987;-60
2021/08/10 03:55:47;;;;;;;;;;;;;;;19.12;63.41;99796.66;5013211;28;885;-60
2021/08/10 03:58:14;;;;;;;;;;;;;;;19.15;63.48;99798.53;5014240;28;877;-60
2021/08/10 04:00:41;;;;;;;;;;;;;;;19.23;63.44;99812.28;5014209;28;1886;-60
2021/08/10 04:03:09;;;;;;;;;;;;;;;19.33;63.09;99811.84;5014129;28;822;-60
2021/08/10 04:05:39;;;;;;;;;;;;;;;19.50;63.07;99805.94;5014013;28;842;-60
2021/08/10 04:08:09;;;;;;;;;;;;;;;19.67;62.53;99812.84;5013948;28;819;-60
2021/08/10 04:10:38;;;;;;;;;;;;;;;19.85;62.54;99811.34;5013895;28;818;-60
2021/08/10 04:13:04;;;;;;;;;;;;;;;20.03;62.21;99802.91;5013919;28;819;-60
2021/08/10 04:15:31;;;;;;;;;;;;;;;20.19;62.39;99808.22;5013676;28;865;-60
2021/08/10 04:17:59;;;;;;;;;;;;;;;20.35;62.36;99806.31;5013626;28;1373;-60
2021/08/10 04:20:25;;;;;;;;;;;;;;;20.45;62.66;99805.06;5013643;28;1977;-60
2021/08/10 04:22:52;;;;;;;;;;;;;;;20.57;62.15;99801.31;5013551;28;861;-60
2021/08/10 04:25:19;;;;;;;;;;;;;;;20.68;62.19;99797.25;5013661;28;858;-60
2021/08/10 04:27:46;;;;;;;;;;;;;;;20.73;62.08;99802.22;5013678;28;845;-60
2021/08/10 04:30:13;;;;;;;;;;;;;;;20.81;61.67;99803.44;5013488;28;858;-60
2021/08/10 04:32:39;;;;;;;;;;;;;;;20.95;61.15;99805.56;5013516;28;814;-60
2021/08/10 04:35:06;;;;;;;;;;;;;;;21.09;60.91;99808.94;5013463;28;838;-60
2021/08/10 04:37:32;;;;;;;;;;;;;;;21.25;60.47;99800.13;5013393;28;823;-60
2021/08/10 04:39:59;;;;;;;;;;;;;;;21.45;59.90;99807.25;5013405;28;819;-60
2021/08/10 04:42:27;;;;;;;;;;;;;;;21.67;59.21;99810.50;5013193;28;1886;-60
2021/08/10 04:44:53;;;;;;;;;;;;;;;21.89;58.69;99809.41;5013300;28;858;-60
2021/08/10 04:47:19;;;;;;;;;;;;;;;22.09;58.02;99808.81;5013191;28;850;-60
2021/08/10 04:49:45;;;;;;;;;;;;;;;22.32;57.95;99816.44;5013211;28;874;-60
2021/08/10 04:52:11;;;;;;;;;;;;;;;22.53;57.29;99814.53;5013151;28;866;-60
2021/08/10 04:54:38;;;;;;;;;;;;;;;22.72;56.97;99819.94;5013069;28;811;-60
2021/08/10 04:57:05;;;;;;;;;;;;;;;22.94;56.78;99813.91;5012400;28;874;-60
2021/08/10 04:59:32;;;;;;;;;;;;;;;23.18;56.39;99808.94;5013045;28;835;-60
2021/08/10 05:01:58;;;;;;;;;;;;;;;23.37;56.06;99805.88;5012938;28;1890;-60
2021/08/10 05:04:25;;;;;;;;;;;;;;;23.54;55.66;99806.09;5012988;28;799;-60
2021/08/10 05:06:53;;;;;;;;;;;;;;;23.65;55.04;99809.84;5012933;28;822;-60
2021/08/10 05:14:38;;;;;;;;;;;;;;;24.05;53.16;99813.94;5943643;22;1672;-61
2021/08/10 05:17:13;;;;;;;;;;;;;;;24.59;52.82;99816.31;5150760;27;1425;-61
2021/08/10 05:19:39;;;;;;;;;;;;;;;25.32;50.34;99815.34;5150963;27;872;-61
2021/08/10 05:22:05;;;;;;;;;;;;;;;25.99;48.40;99826.25;5150660;27;820;-61
2021/08/10 05:24:32;;;;;;;;;;;;;;;26.83;46.51;99832.13;5150561;27;805;-61
2021/08/10 05:26:58;;;;;;;;;;;;;;;27.45;44.82;99826.41;5149237;27;903;-61
2021/08/10 05:29:25;;;;;;;;;;;;;;;28.06;43.43;99815.38;5150430;27;841;-61
2021/08/10 05:31:51;;;;;;;;;;;;;;;28.64;42.56;99812.44;5150469;27;821;-61
2021/08/10 05:34:18;;;;;;;;;;;;;;;29.13;41.49;99814.63;5150401;27;828;-61
2021/08/10 05:36:45;;;;;;;;;;;;;;;29.65;39.89;99810.69;5150329;27;1910;-61
2021/08/10 05:39:11;;;;;;;;;;;;;;;29.76;39.55;99804.13;5150211;27;805;-61
2021/08/10 05:41:38;;;;;;;;;;;;;;;29.89;39.17;99809.13;5150250;27;908;-62
2021/08/10 05:44:05;;;;;;;;;;;;;;;30.32;38.47;99809.09;5150159;27;833;-61
2021/08/10 05:46:31;;;;;;;;;;;;;;;30.77;37.35;99807.63;5150073;27;862;-61
2021/08/10 05:48:59;;;;;;;;;;;;;;;30.96;36.69;99809.66;5150183;27;817;-61
2021/08/10 05:51:26;;;;;;;;;;;;;;;31.26;35.83;99801.59;5148696;27;1292;-62
2021/08/10 05:53:53;;;;;;;;;;;;;;;31.34;36.05;99793.91;5149983;27;813;-61
2021/08/10 05:56:19;;;;;;;;;;;;;;;31.61;35.93;99799.63;5149891;27;1956;-61
2021/08/10 05:58:46;;;;;;;;;;;;;;;31.91;35.09;99790.69;5149864;27;833;-61
2021/08/10 06:01:12;;;;;;;;;;;;;;;32.24;34.38;99794.16;5149812;27;802;-62
2021/08/10 06:03:38;;;;;;;;;;;;;;;32.79;33.91;99798.31;5150069;27;853;-61
2021/08/10 06:06:05;;;;;;;;;;;;;;;33.48;32.45;99793.91;5148687;27;1473;-61
2021/08/10 06:08:32;;;;;;;;;;;;;;;34.23;30.68;99794.06;5149956;27;1193;-61
2021/08/10 06:10:58;;;;;;;;;;;;;;;34.57;29.90;99798.72;5150200;27;875;-61
2021/08/10 06:13:25;;;;;;;;;;;;;;;35.14;28.87;99803.38;5149633;27;864;-61
2021/08/10 06:15:52;;;;;;;;;;;;;;;35.83;27.55;99808.22;5149425;27;1943;-61
2021/08/10 06:18:19;;;;;;;;;;;;;;;35.76;28.01;99810.56;5149855;27;861;-61
2021/08/10 06:20:45;;;;;;;;;;;;;;;35.74;27.76;99815.34;5149908;27;832;-61
2021/08/10 06:23:12;;;;;;;;;;;;;;;35.93;27.80;99801.28;5149394;27;857;-61
2021/08/10 06:25:39;;;;;;;;;;;;;;;36.35;27.56;99806.44;5149409;27;821;-61
2021/08/10 06:28:06;;;;;;;;;;;;;;;36.87;27.21;99808.03;5138256;27;856;-61
2021/08/10 06:30:32;;;;;;;;;;;;;;;37.49;25.89;99802.47;5135353;27;900;-61
2021/08/10 06:32:59;;;;;;;;;;;;;;;37.78;25.58;99803.50;5135536;27;837;-61
2021/08/10 06:35:26;;;;;;;;;;;;;;;38.00;25.20;99810.34;5135242;27;1918;-61
2021/08/10 06:37:52;;;;;;;;;;;;;;;38.07;25.54;99805.09;5135352;27;940;-61
2021/08/10 06:40:18;;;;;;;;;;;;;;;38.12;25.38;99799.06;5135339;27;877;-61
2021/08/10 06:42:45;;;;;;;;;;;;;;;37.90;25.93;99806.63;5135186;27;817;-61
2021/08/10 06:45:12;;;;;;;;;;;;;;;38.02;26.48;99806.09;5135198;27;1043;-61
2021/08/10 06:47:38;;;;;;;;;;;;;;;38.20;26.32;99808.38;5133960;27;1628;-61
2021/08/10 06:50:05;;;;;;;;;;;;;;;38.12;25.65;99807.72;5135143;27;805;-61
2021/08/10 06:52:32;;;;;;;;;;;;;;;38.22;25.44;99798.34;5135026;27;793;-61
2021/08/10 06:54:59;;;;;;;;;;;;;;;38.59;24.94;99804.94;5134961;27;1877;-61
2021/08/10 06:57:26;;;;;;;;;;;;;;;38.81;24.78;99808.81;5134946;27;813;-61
2021/08/10 06:59:52;;;;;;;;;;;;;;;39.14;24.37;99814.28;5134918;27;872;-61
2021/08/10 07:02:18;;;;;;;;;;;;;;;39.52;24.22;99816.47;5134887;27;853;-62
2021/08/10 07:04:45;;;;;;;;;;;;;;;39.83;24.13;99806.44;5134870;27;865;-62
2021/08/10 07:07:12;;;;;;;;;;;;;;;40.29;23.38;99800.44;5134812;27;817;-62
2021/08/10 07:09:39;;;;;;;;;;;;;;;40.80;23.04;99794.63;5134781;27;871;-62
2021/08/10 07:12:05;;;;;;;;;;;;;;;40.72;22.77;99794.06;5134726;27;841;-62
2021/08/10 07:14:32;;;;;;;;;;;;;;;40.66;22.75;99788.56;5134808;27;805;-62
2021/08/10 07:16:58;;;;;;;;;;;;;;;40.43;22.73;99792.00;5134339;27;1909;-62
2021/08/10 07:19:25;;;;;;;;;;;;;;;40.21;22.85;99789.00;5134590;27;781;-62
2021/08/10 07:21:52;;;;;;;;;;;;;;;40.14;23.76;99792.09;5134520;27;863;-62
2021/08/10 07:24:19;;;;;;;;;;;;;;;39.93;24.20;99789.84;5134450;27;821;-62
2021/08/10 07:26:46;;;;;;;;;;;;;;;39.91;24.00;99786.81;5133084;27;1317;-62
2021/08/10 07:29:13;;;;;;;;;;;;;;;39.91;23.95;99787.56;5134367;27;904;-62
2021/08/10 07:31:39;;;;;;;;;;;;;;;40.03;23.46;99787.66;5134414;27;864;-62
2021/08/10 07:34:05;;;;;;;;;;;;;;;40.47;23.23;99780.72;5134206;27;892;-62
2021/08/10 07:36:32;;;;;;;;;;;;;;;40.18;23.33;99784.47;5134202;27;1956;-61
2021/08/10 07:38:58;;;;;;;;;;;;;;;40.35;23.43;99779.84;5133139;27;836;-62
2021/08/10 07:41:25;;;;;;;;;;;;;;;40.57;23.03;99786.47;5134161;27;1147;-62
2021/08/10 07:43:51;;;;;;;;;;;;;;;40.40;22.52;99782.44;5134017;27;868;-62
2021/08/10 07:46:17;;;;;;;;;;;;;;;40.42;22.31;99785.47;5134027;27;793;-62
2021/08/10 07:48:44;;;;;;;;;;;;;;;40.22;23.08;99778.19;5134019;27;848;-62
2021/08/10 07:51:11;;;;;;;;;;;;;;;40.29;22.37;99779.44;5133875;27;841;-62
2021/08/10 07:53:38;;;;;;;;;;;;;;;40.26;23.08;99775.59;5133847;27;897;-62
2021/08/10 07:56:05;;;;;;;;;;;;;;;40.43;23.12;99771.75;5133698;27;1947;-62
2021/08/10 07:58:32;;;;;;;;;;;;;;;40.51;22.32;99772.31;5133826;27;809;-62
2021/08/10 08:00:58;;;;;;;;;;;;;;;40.42;22.37;99773.88;5133725;27;785;-63
2021/08/10 08:03:25;;;;;;;;;;;;;;;40.56;22.28;99770.47;5133655;27;801;-62
2021/08/10 08:05:52;;;;;;;;;;;;;;;41.16;21.79;99772.47;5133545;27;912;-62
2021/08/10 08:08:18;;;;;;;;;;;;;;;41.51;21.66;99766.09;5133707;27;856;-62
2021/08/10 08:10:45;;;;;;;;;;;;;;;41.76;21.22;99765.56;5133517;27;825;-62
2021/08/10 08:13:12;;;;;;;;;;;;;;;41.67;20.80;99749.78;5133417;27;869;-62
2021/08/10 08:15:38;;;;;;;;;;;;;;;41.75;21.23;99747.41;5131767;27;1893;-62
2021/08/10 08:18:05;;;;;;;;;;;;;;;41.67;20.79;99751.94;5133273;27;908;-62
2021/08/10 08:20:32;;;;;;;;;;;;;;;41.45;20.70;99745.38;5133496;27;849;-62
2021/08/10 08:22:58;;;;;;;;;;;;;;;41.27;21.43;99745.69;5133296;27;845;-63
2021/08/10 08:25:25;;;;;;;;;;;;;;;41.26;21.00;99755.00;5133292;27;844;-62
2021/08/10 08:27:51;;;;;;;;;;;;;;;41.72;21.27;99751.56;5133327;27;777;-62
2021/08/10 08:30:18;;;;;;;;;;;;;;;41.60;20.98;99745.72;5133342;27;794;-62
2021/08/10 08:32:45;;;;;;;;;;;;;;;41.33;20.93;99737.41;5133287;27;868;-62
2021/08/10 08:35:12;;;;;;;;;;;;;;;41.64;20.82;99735.78;5133141;27;1881;-62
2021/08/10 08:37:39;;;;;;;;;;;;;;;42.16;20.33;99731.88;5133321;27;792;-63
2021/08/10 08:40:06;;;;;;;;;;;;;;;41.97;20.63;99732.81;5133234;27;790;-62
2021/08/10 08:42:33;;;;;;;;;;;;;;;41.43;20.81;99734.41;5133100;27;911;-62
2021/08/10 08:45:00;;;;;;;;;;;;;;;41.22;21.49;99732.28;5133040;27;884;-63
2021/08/10 08:47:27;;;;;;;;;;;;;;;40.65;21.35;99732.03;5133112;27;920;-63
2021/08/10 08:49:56;;;;;;;;;;;;;;;40.32;21.68;99737.66;5132847;27;857;-63
2021/08/10 08:52:24;;;;;;;;;;;;;;;40.53;22.09;99737.72;5132697;27;888;-62
2021/08/10 08:54:51;;;;;;;;;;;;;;;41.09;22.22;99729.94;5132816;27;793;-62
2021/08/10 08:57:18;;;;;;;;;;;;;;;41.15;21.17;99742.72;5132744;27;856;-62
2021/08/10 08:59:44;;;;;;;;;;;;;;;41.01;20.73;99730.13;5132764;27;798;-63
2021/08/10 09:02:16;;;;;;;;;;;;;;;40.78;21.38;99728.63;5132771;27;825;-62
2021/08/10 09:04:44;;;;;;;;;;;;;;;40.48;21.31;99726.47;5132675;27;777;-62
2021/08/10 09:07:09;;;;;;;;;;;;;;;40.67;21.66;99725.59;5132739;27;817;-63
2021/08/10 09:09:36;;;;;;;;;;;;;;;41.02;21.60;99728.75;5132672;27;868;-62
2021/08/10 09:12:12;;;;;;;;;;;;;;;41.05;20.91;99727.50;5132705;27;790;-63
2021/08/10 09:14:46;;;;;;;;;;;;;;;41.23;21.23;99719.34;5132620;27;817;-62
2021/08/10 09:17:14;;;;;;;;;;;;;;;41.35;21.00;99717.22;5132450;27;1906;-63
2021/08/10 09:19:47;;;;;;;;;;;;;;;41.45;20.77;99714.25;5132568;27;905;-62
2021/08/10 09:22:33;;;;;;;;;;;;;;;41.24;21.18;99705.59;5132515;27;849;-62
2021/08/10 09:25:00;;;;;;;;;;;;;;;41.13;21.71;99704.88;5132533;27;778;-63
2021/08/10 09:27:31;;;;;;;;;;;;;;;40.92;21.74;99708.53;5131088;28;842;-62
2021/08/10 09:29:58;;;;;;;;;;;;;;;40.69;21.91;99705.47;5132489;27;852;-62
2021/08/10 09:32:24;;;;;;;;;;;;;;;40.59;21.71;99705.53;5132452;27;856;-61
2021/08/10 09:35:13;;;;;;;;;;;;;;;40.37;22.48;99702.59;5132427;27;872;-62
2021/08/10 09:37:40;;;;;;;;;;;;;;;40.67;22.29;99697.41;5132411;27;845;-62
2021/08/10 09:40:27;;;;;;;;;;;;;;;40.97;22.07;99695.84;5132267;27;928;-62
2021/08/10 09:42:54;;;;;;;;;;;;;;;40.53;21.41;99691.38;5132308;27;876;-62
2021/08/10 09:45:20;;;;;;;;;;;;;;;39.90;22.21;99686.91;5132305;27;876;-62
2021/08/10 09:47:47;;;;;;;;;;;;;;;39.67;22.71;99691.06;5132283;27;800;-62
2021/08/10 09:50:17;;;;;;;;;;;;;;;39.82;22.83;99687.06;5132237;27;809;-62
2021/08/10 09:52:45;;;;;;;;;;;;;;;39.86;22.33;99680.81;5132225;27;859;-62
2021/08/10 09:55:13;;;;;;;;;;;;;;;39.36;21.78;99683.00;5132110;27;1893;-62
2021/08/10 09:57:41;;;;;;;;;;;;;;;38.75;23.38;99672.59;5132435;27;850;-63
2021/08/10 10:00:08;;;;;;;;;;;;;;;37.90;24.91;99673.97;5132155;27;898;-62
2021/08/10 10:02:36;;;;;;;;;;;;;;;37.52;25.35;99677.34;5133498;27;880;-62
2021/08/10 10:05:02;;;;;;;;;;;;;;;37.58;25.73;99675.75;5136017;27;821;-62
2021/08/10 10:07:29;;;;;;;;;;;;;;;38.09;24.78;99679.09;5136017;27;864;-62
2021/08/10 10:09:56;;;;;;;;;;;;;;;38.30;24.67;99669.13;5135838;27;834;-62
2021/08/10 10:12:23;;;;;;;;;;;;;;;38.04;24.17;99671.47;5135794;27;857;-62
2021/08/10 10:14:50;;;;;;;;;;;;;;;38.03;24.18;99674.94;5135409;27;1170;-63
2021/08/10 10:17:17;;;;;;;;;;;;;;;37.94;24.00;99677.16;5135693;27;1910;-62
2021/08/10 10:19:45;;;;;;;;;;;;;;;38.19;24.37;99671.22;5135736;27;782;-62
2021/08/10 10:22:17;;;;;;;;;;;;;;;38.27;23.76;99671.09;5135638;27;884;-62
2021/08/10 10:24:51;;;;;;;;;;;;;;;38.32;23.63;99670.03;5135759;27;889;-62
2021/08/10 10:27:19;;;;;;;;;;;;;;;38.27;22.77;99668.22;5135548;27;854;-62
2021/08/10 10:29:50;;;;;;;;;;;;;;;38.15;23.26;99656.50;5135598;27;809;-62
2021/08/10 10:32:19;;;;;;;;;;;;;;;37.91;23.47;99661.06;5135523;27;790;-63
2021/08/10 10:34:46;;;;;;;;;;;;;;;37.53;23.94;99661.56;5135493;27;901;-63
2021/08/10 10:37:18;;;;;;;;;;;;;;;37.48;24.06;99663.34;5135333;27;1881;-63
2021/08/10 10:39:45;;;;;;;;;;;;;;;37.50;23.56;99657.75;5135227;27;872;-63
2021/08/10 10:42:15;;;;;;;;;;;;;;;37.54;22.86;99658.09;5135221;27;853;-63
2021/08/10 10:44:43;;;;;;;;;;;;;;;37.44;22.91;99656.50;5135445;27;805;-63
2021/08/10 10:50:14;;;;;;;;;;;;;;;37.07;24.24;99662.13;5135200;27;632;-62
2021/08/10 10:52:59;;;;;;;;;;;;;;;36.68;24.48;99656.78;5135096;27;1015;-63
2021/08/10 10:55:35;;;;;;;;;;;;;;;36.06;25.70;99653.59;5134944;27;1961;-62
2021/08/10 10:58:22;;;;;;;;;;;;;;;35.63;25.51;99654.78;5135170;27;868;-63
2021/08/10 11:01:09;;;;;;;;;;;;;;;35.16;25.51;99649.25;5135071;27;854;-63
2021/08/10 11:03:36;;;;;;;;;;;;;;;34.99;25.61;99649.06;5134907;27;2218;-63
2021/08/10 11:06:31;;;;;;;;;;;;;;;35.16;25.82;99649.25;5135328;27;868;-62
2021/08/10 11:09:01;;;;;;;;;;;;;;;35.28;26.43;99645.97;5133061;27;1036;-62
2021/08/10 11:11:44;;;;;;;;;;;;;;;35.21;27.42;99636.03;5134782;27;782;-63
2021/08/10 11:14:39;;;;;;;;;;;;;;;35.46;27.63;99635.31;5133265;27;1264;-63
2021/08/10 11:17:09;;;;;;;;;;;;;;;36.28;26.98;99631.78;5116158;27;1984;-62
2021/08/10 11:19:36;;;;;;;;;;;;;;;37.09;26.06;99637.16;5134554;27;908;-64
2021/08/10 11:22:17;;;;;;;;;;;;;;;37.56;25.73;99632.34;5134528;27;870;-63
2021/08/10 11:24:53;;;;;;;;;;;;;;;38.06;24.87;99625.47;5134505;27;853;-62
2021/08/10 11:27:43;;;;;;;;;;;;;;;38.04;24.56;99622.41;5134406;27;841;-63
2021/08/10 11:30:30;;;;;;;;;;;;;;;38.18;24.55;99622.78;5134797;27;781;-63
2021/08/10 11:32:57;;;;;;;;;;;;;;;38.10;24.42;99622.16;5134225;27;1348;-63
2021/08/10 11:35:38;;;;;;;;;;;;;;;38.54;24.20;99616.22;5134154;27;1894;-63
2021/08/10 11:38:05;;;;;;;;;;;;;;;39.25;23.70;99610.63;5134035;27;873;-63
2021/08/10 11:40:48;;;;;;;;;;;;;;;39.69;23.14;99603.66;5134164;27;844;-63
2021/08/10 11:43:15;;;;;;;;;;;;;;;39.83;23.07;99607.59;5134143;27;861;-61
2021/08/10 11:45:40;;;;;;;;;;;;;;;39.26;22.94;99609.25;5134003;27;896;-62
2021/08/10 11:48:07;;;;;;;;;;;;;;;38.26;24.01;99611.09;5134083;27;797;-62
2021/08/10 11:50:35;;;;;;;;;;;;;;;37.43;24.57;99603.88;5134013;27;801;-63
2021/08/10 11:53:02;;;;;;;;;;;;;;;37.28;25.61;99598.28;5133967;27;907;-63
2021/08/10 11:55:33;;;;;;;;;;;;;;;36.85;25.78;99606.28;5133777;27;1893;-62
2021/08/10 11:58:01;;;;;;;;;;;;;;;36.50;26.32;99597.63;5133849;27;797;-63
2021/08/10 12:00:29;;;;;;;;;;;;;;;36.35;26.04;99604.28;5133740;27;825;-63
2021/08/10 12:02:56;;;;;;;;;;;;;;;35.94;26.43;99600.75;5133675;27;920;-63
2021/08/10 12:05:24;;;;;;;;;;;;;;;35.58;27.62;99593.31;5133592;27;885;-63
2021/08/10 12:08:00;;;;;;;;;;;;;;;35.28;27.98;99585.63;5133487;27;892;-63
2021/08/10 12:10:31;;;;;;;;;;;;;;;35.12;28.46;99587.78;5133750;27;887;-62
2021/08/10 12:13:00;;;;;;;;;;;;;;;34.76;28.53;99583.13;5133433;27;909;-63
2021/08/10 12:15:46;;;;;;;;;;;;;;;34.49;28.74;99582.78;5133005;27;1902;-63
2021/08/10 12:18:15;;;;;;;;;;;;;;;34.45;29.00;99583.16;5133502;27;868;-62
2021/08/10 12:20:42;;;;;;;;;;;;;;;34.61;28.55;99586.00;5133356;27;858;-62
2021/08/10 12:23:10;;;;;;;;;;;;;;;34.73;28.63;99581.41;5132128;27;845;-62
2021/08/10 12:25:38;;;;;;;;;;;;;;;34.74;29.04;99585.81;5132752;27;845;-62
2021/08/10 12:28:08;;;;;;;;;;;;;;;34.66;28.88;99585.81;5133207;27;879;-62
2021/08/10 12:30:37;;;;;;;;;;;;;;;34.86;28.40;99586.16;5133170;27;900;-62
2021/08/10 12:33:14;;;;;;;;;;;;;;;35.43;27.92;99588.41;5133188;27;893;-62
2021/08/10 12:36:00;;;;;;;;;;;;;;;36.51;26.88;99576.09;5132902;27;1890;-62
2021/08/10 12:38:29;;;;;;;;;;;;;;;38.24;26.02;99590.75;5131717;27;1694;-62
2021/08/10 12:40:56;;;;;;;;;;;;;;;39.93;23.91;99569.97;5132902;27;834;-62
2021/08/10 12:43:23;;;;;;;;;;;;;;;40.82;22.50;99577.47;5132999;27;809;-64
2021/08/10 12:45:51;;;;;;;;;;;;;;;40.89;21.90;99567.81;5132999;27;871;-63
2021/08/10 12:48:25;;;;;;;;;;;;;;;40.93;21.08;99573.13;5133139;27;781;-63
2021/08/10 12:51:08;;;;;;;;;;;;;;;40.75;20.82;99572.66;5132963;27;797;-61
2021/08/10 12:53:36;;;;;;;;;;;;;;;40.09;21.23;99576.13;5132825;27;817;-61
2021/08/10 12:56:06;;;;;;;;;;;;;;;39.10;22.52;99582.81;5132710;27;1946;-63
2021/08/10 12:58:50;;;;;;;;;;;;;;;38.73;23.07;99583.72;5132936;27;872;-63
2021/08/10 13:01:17;;;;;;;;;;;;;;;38.26;23.42;99585.13;5132797;27;825;-62
2021/08/10 13:03:43;;;;;;;;;;;;;;;37.91;23.90;99576.66;5132685;27;835;-62
2021/08/10 13:06:30;;;;;;;;;;;;;;;37.44;24.57;99605.38;5132697;27;860;-63
2021/08/10 13:08:58;;;;;;;;;;;;;;;36.70;25.97;99590.72;5131338;27;2269;-62
2021/08/10 13:11:24;;;;;;;;;;;;;;;35.84;27.46;99594.13;5132626;27;900;-63
2021/08/10 13:13:54;;;;;;;;;;;;;;;34.96;29.66;99598.56;5132561;27;867;-63
2021/08/10 13:16:34;;;;;;;;;;;;;;;34.32;30.60;99594.84;5132184;27;1909;-63
2021/08/10 13:19:13;;;;;;;;;;;;;;;33.91;31.41;99603.22;5132569;27;793;-62
2021/08/10 13:21:45;;;;;;;;;;;;;;;33.56;32.67;99596.25;5132529;27;860;-62
2021/08/10 13:24:13;;;;;;;;;;;;;;;33.18;33.50;99601.84;5132513;27;816;-63